createdAt,value
2018-11-04T00:01:24.625Z,73.71
2018-11-04T00:03:53.610Z,73.84
2018-11-04T00:06:22.758Z,73.73
2018-11-04T00:08:51.850Z,74.57
2018-11-04T00:11:20.995Z,75.22
2018-11-04T00:13:50.133Z,74.15
2018-11-04T00:16:19.399Z,74.06
2018-11-04T00:18:48.390Z,75.32
2018-11-04T00:21:18.082Z,75.18
2018-11-04T00:23:47.345Z,75.21
2018-11-04T00:26:16.403Z,74.25
2018-11-04T00:28:45.426Z,74.43
2018-11-04T00:31:14.577Z,75.12
2018-11-04T00:33:43.726Z,75.44
2018-11-04T00:36:12.463Z,74.76
2018-11-04T00:38:41.390Z,74.99
2018-11-04T00:41:10.565Z,74.82
2018-11-04T00:43:39.591Z,75.36
2018-11-04T00:46:08.794Z,75.08
2018-11-04T00:48:38.035Z,75.62
2018-11-04T00:51:07.487Z,76.21
2018-11-04T00:53:36.482Z,76.22
2018-11-04T00:56:05.805Z,76.28
2018-11-04T00:58:34.718Z,76.63
2018-11-04T01:01:03.983Z,76.94
2018-11-04T01:03:33.218Z,76.78
2018-11-04T01:06:02.519Z,77.17
2018-11-04T01:08:31.355Z,78.04
2018-11-04T01:11:00.269Z,78.61
2018-11-04T01:13:29.184Z,78.76
2018-11-04T01:15:58.326Z,78.57
2018-11-04T01:18:27.286Z,78.89
2018-11-04T01:20:56.546Z,79.45
2018-11-04T01:23:25.582Z,79.28
2018-11-04T01:25:54.762Z,79.69
2018-11-04T01:28:23.500Z,80.29
2018-11-04T01:30:52.578Z,80.27
2018-11-04T01:33:21.758Z,80.48
2018-11-04T01:35:50.832Z,81.02
2018-11-04T01:38:19.701Z,81.07
2018-11-04T01:40:48.897Z,81.39
2018-11-04T01:43:17.738Z,81.16
2018-11-04T01:45:46.635Z,81.74
2018-11-04T01:48:15.659Z,81.23
2018-11-04T01:50:44.933Z,81.68
2018-11-04T01:53:14.078Z,81.51
2018-11-04T01:55:43.161Z,81.66
2018-11-04T01:58:12.274Z,81.67
2018-11-04T02:00:41.372Z,81.96
2018-11-04T02:03:10.476Z,81.69
2018-11-04T02:05:39.590Z,82.00
2018-11-04T02:08:08.691Z,81.66
2018-11-04T02:10:37.855Z,82.51
2018-11-04T02:13:07.043Z,82.72
2018-11-04T02:15:36.146Z,83.04
2018-11-04T02:18:04.974Z,82.40
2018-11-04T02:20:34.109Z,81.83
2018-11-04T02:23:02.929Z,81.78
2018-11-04T02:25:32.066Z,81.78
2018-11-04T02:28:01.195Z,82.52
2018-11-04T02:30:30.299Z,82.60
2018-11-04T02:32:59.106Z,83.34
2018-11-04T02:35:28.019Z,83.23
2018-11-04T02:37:57.290Z,83.01
2018-11-04T02:40:26.309Z,83.25
2018-11-04T02:42:55.458Z,82.98
2018-11-04T02:45:24.266Z,82.40
2018-11-04T02:47:53.124Z,82.43
2018-11-04T02:50:22.143Z,82.43
2018-11-04T02:52:51.400Z,82.38
2018-11-04T02:55:20.522Z,82.89
2018-11-04T02:57:49.568Z,82.53
2018-11-04T03:00:18.711Z,83.17
2018-11-04T03:02:47.709Z,83.34
2018-11-04T03:05:16.650Z,83.82
2018-11-04T03:07:45.733Z,83.74
2018-11-04T03:10:15.295Z,83.90
2018-11-04T03:12:44.464Z,84.57
2018-11-04T03:15:13.675Z,83.40
2018-11-04T03:17:42.866Z,83.82
2018-11-04T03:20:11.983Z,84.38
2018-11-04T03:22:40.856Z,84.47
2018-11-04T03:25:09.899Z,84.11
2018-11-04T03:27:39.158Z,84.15
2018-11-04T03:30:09.070Z,84.25
2018-11-04T03:32:38.074Z,83.81
2018-11-04T03:35:07.262Z,84.05
2018-11-04T03:37:36.355Z,83.75
2018-11-04T03:40:06.403Z,83.37
2018-11-04T03:42:35.462Z,83.64
2018-11-04T03:45:04.694Z,84.17
2018-11-04T03:47:33.811Z,83.75
2018-11-04T03:50:02.644Z,83.05
2018-11-04T03:52:31.719Z,83.94
2018-11-04T03:55:00.834Z,84.04
2018-11-04T03:57:29.938Z,84.29
2018-11-04T03:59:59.265Z,84.49
2018-11-04T04:02:28.290Z,84.04
2018-11-04T04:04:57.426Z,84.87
2018-11-04T04:07:26.766Z,84.80
2018-11-04T04:09:56.036Z,84.44
2018-11-04T04:12:25.266Z,84.20
2018-11-04T04:14:54.389Z,84.05
2018-11-04T04:17:23.653Z,84.13
2018-11-04T04:19:52.780Z,83.98
2018-11-04T04:22:21.900Z,83.67
2018-11-04T04:24:51.258Z,83.17
2018-11-04T04:27:20.338Z,82.65
2018-11-04T04:29:49.491Z,83.31
2018-11-04T04:32:18.581Z,83.37
2018-11-04T04:34:47.719Z,83.60
2018-11-04T04:37:16.538Z,83.33
2018-11-04T04:39:45.596Z,83.78
2018-11-04T04:42:14.806Z,83.50
2018-11-04T04:44:43.995Z,83.80
2018-11-04T04:47:13.101Z,83.16
2018-11-04T04:49:41.994Z,82.68
2018-11-04T04:52:11.086Z,82.50
2018-11-04T04:54:40.151Z,82.27
2018-11-04T04:57:09.478Z,81.70
2018-11-04T04:59:38.565Z,82.11
2018-11-04T05:02:07.882Z,81.94
2018-11-04T05:04:37.107Z,82.38
2018-11-04T05:07:06.272Z,81.51
2018-11-04T05:09:35.500Z,80.30
2018-11-04T05:12:04.490Z,80.11
2018-11-04T05:14:33.503Z,80.49
2018-11-04T05:17:02.815Z,80.21
2018-11-04T05:19:31.951Z,81.18
2018-11-04T05:22:00.996Z,80.92
2018-11-04T05:24:30.191Z,80.22
2018-11-04T05:26:59.486Z,79.66
2018-11-04T05:29:28.590Z,79.54
2018-11-04T05:31:57.566Z,79.35
2018-11-04T05:34:26.581Z,79.53
2018-11-04T05:36:55.751Z,79.73
2018-11-04T05:39:25.046Z,79.67
2018-11-04T05:41:54.056Z,78.99
2018-11-04T05:44:23.244Z,79.26
2018-11-04T05:46:52.071Z,78.14
2018-11-04T05:49:21.165Z,77.87
2018-11-04T05:51:50.178Z,78.76
2018-11-04T05:54:19.386Z,77.49
2018-11-04T05:56:48.087Z,76.65
2018-11-04T05:59:17.146Z,77.01
2018-11-04T06:01:46.342Z,76.34
2018-11-04T06:04:15.634Z,76.56
2018-11-04T06:06:44.741Z,76.23
2018-11-04T06:09:13.924Z,75.93
2018-11-04T06:11:43.042Z,75.57
2018-11-04T06:14:12.267Z,75.49
2018-11-04T06:16:41.413Z,74.82
2018-11-04T06:19:10.530Z,73.63
2018-11-04T06:21:39.539Z,70.92
2018-11-04T06:24:08.350Z,71.37
2018-11-04T06:26:37.562Z,72.43
2018-11-04T06:29:06.758Z,72.33
2018-11-04T06:31:35.915Z,72.59
2018-11-04T06:34:04.918Z,72.56
2018-11-04T06:36:34.137Z,72.94
2018-11-04T06:39:03.362Z,73.24
2018-11-04T06:41:32.520Z,73.07
2018-11-04T06:44:01.483Z,73.18
2018-11-04T06:46:30.618Z,72.63
2018-11-04T06:48:59.615Z,71.95
2018-11-04T06:51:28.437Z,72.04
2018-11-04T06:53:57.258Z,72.20
2018-11-04T06:56:26.471Z,71.85
2018-11-04T06:58:55.688Z,71.26
2018-11-04T07:01:24.827Z,70.56
2018-11-04T07:04:04.497Z,70.74
2018-11-04T07:06:33.618Z,69.89
2018-11-04T07:09:02.885Z,69.52
2018-11-04T07:11:31.845Z,68.83
2018-11-04T07:14:00.723Z,68.73
2018-11-04T07:16:29.877Z,68.25
2018-11-04T07:18:58.930Z,68.50
2018-11-04T07:21:28.087Z,68.37
2018-11-04T07:23:57.214Z,68.36
2018-11-04T07:26:26.286Z,68.49
2018-11-04T07:28:55.075Z,67.39
2018-11-04T07:31:24.091Z,67.06
2018-11-04T07:33:52.963Z,67.15
2018-11-04T07:36:22.262Z,66.52
2018-11-04T07:38:51.397Z,66.65
2018-11-04T07:41:20.978Z,66.71
2018-11-04T07:43:50.386Z,66.06
2018-11-04T07:46:19.730Z,66.81
2018-11-04T07:48:49.386Z,66.40
2018-11-04T07:51:18.793Z,66.96
2018-11-04T07:53:48.061Z,66.30
2018-11-04T07:56:17.146Z,66.14
2018-11-04T07:58:46.372Z,66.08
2018-11-04T08:01:15.379Z,65.21
2018-11-04T08:03:44.475Z,65.22
2018-11-04T08:06:13.562Z,65.00
2018-11-04T08:08:42.815Z,65.03
2018-11-04T08:11:11.835Z,64.70
2018-11-04T08:13:41.116Z,63.42
2018-11-04T08:16:10.355Z,62.87
2018-11-04T08:18:39.361Z,62.47
2018-11-04T08:21:08.214Z,61.64
2018-11-04T08:23:37.478Z,62.01
2018-11-04T08:26:06.497Z,62.23
2018-11-04T08:28:35.522Z,61.07
2018-11-04T08:31:04.427Z,60.46
2018-11-04T08:33:33.510Z,59.91
2018-11-04T08:36:02.741Z,60.45
2018-11-04T08:38:32.176Z,60.73
2018-11-04T08:41:01.092Z,61.03
2018-11-04T08:43:30.106Z,60.42
2018-11-04T08:45:58.872Z,59.23
2018-11-04T08:48:27.937Z,59.08
2018-11-04T08:50:57.201Z,58.59
2018-11-04T08:53:26.404Z,58.42
2018-11-04T08:55:55.483Z,58.10
2018-11-04T08:58:24.635Z,58.16
2018-11-04T09:00:53.775Z,57.99
2018-11-04T09:03:22.650Z,58.40
2018-11-04T09:05:51.826Z,57.58
2018-11-04T09:08:20.759Z,57.69
2018-11-04T09:10:50.127Z,57.29
2018-11-04T09:13:19.273Z,56.80
2018-11-04T09:15:48.220Z,56.69
2018-11-04T09:18:17.324Z,56.98
2018-11-04T09:20:46.454Z,57.06
2018-11-04T09:23:15.392Z,56.40
2018-11-04T09:25:44.754Z,56.88
2018-11-04T09:28:14.015Z,57.08
2018-11-04T09:30:43.151Z,56.67
2018-11-04T09:33:12.345Z,55.93
2018-11-04T09:35:41.626Z,56.22
2018-11-04T09:38:10.363Z,55.07
2018-11-04T09:40:39.326Z,55.75
2018-11-04T09:43:08.430Z,55.01
2018-11-04T09:45:37.539Z,55.15
2018-11-04T09:48:07.018Z,54.44
2018-11-04T09:50:35.850Z,54.22
2018-11-04T09:53:04.718Z,53.60
2018-11-04T09:55:33.826Z,53.89
2018-11-04T09:58:02.654Z,52.34
2018-11-04T10:00:31.601Z,52.81
2018-11-04T10:03:00.360Z,51.66
2018-11-04T10:05:29.196Z,51.51
2018-11-04T10:07:58.239Z,51.04
2018-11-04T10:10:27.398Z,51.27
2018-11-04T10:12:56.337Z,51.40
2018-11-04T10:15:25.611Z,50.69
2018-11-04T10:17:54.484Z,49.70
2018-11-04T10:20:23.963Z,49.77
2018-11-04T10:22:52.593Z,48.57
2018-11-04T10:25:21.748Z,46.96
2018-11-04T10:27:50.795Z,47.04
2018-11-04T10:30:19.934Z,46.90
2018-11-04T10:32:48.993Z,44.80
2018-11-04T10:35:18.261Z,42.85
2018-11-04T10:37:47.279Z,40.46
2018-11-04T10:40:16.413Z,39.91
2018-11-04T10:42:45.506Z,38.62
2018-11-04T10:45:14.631Z,38.26
2018-11-04T10:47:43.810Z,37.90
2018-11-04T10:50:13.408Z,39.06
2018-11-04T10:52:42.375Z,39.23
2018-11-04T10:55:11.849Z,39.02
2018-11-04T10:57:40.802Z,39.22
2018-11-04T11:00:16.050Z,38.74
2018-11-04T11:02:45.980Z,38.65
2018-11-04T11:05:14.774Z,38.93
2018-11-04T11:07:43.778Z,37.37
2018-11-04T11:10:12.867Z,35.89
2018-11-04T11:12:42.052Z,34.59
2018-11-04T11:15:11.586Z,33.96
2018-11-04T11:17:40.978Z,32.54
2018-11-04T11:20:10.801Z,29.96
2018-11-04T11:22:40.163Z,29.19
2018-11-04T11:25:09.607Z,27.53
2018-11-04T11:27:38.580Z,26.20
2018-11-04T11:30:07.709Z,26.49
2018-11-04T11:32:36.851Z,24.79
2018-11-04T11:35:06.478Z,23.68
2018-11-04T11:37:35.790Z,22.78
2018-11-04T11:40:05.027Z,21.27
2018-11-04T11:42:34.194Z,20.27
2018-11-04T11:45:03.011Z,19.20
2018-11-04T11:47:32.275Z,18.40
2018-11-04T11:50:01.188Z,19.46
2018-11-04T11:52:30.376Z,19.09
2018-11-04T11:54:59.528Z,18.75
2018-11-04T11:57:28.623Z,17.23
2018-11-04T11:59:57.611Z,17.90
2018-11-04T12:02:26.865Z,17.79
2018-11-04T12:04:56.062Z,19.13
2018-11-04T12:07:25.302Z,19.27
2018-11-04T12:09:54.255Z,18.93
2018-11-04T12:12:23.002Z,19.14
2018-11-04T12:14:52.206Z,20.31
2018-11-04T12:17:21.321Z,19.85
2018-11-04T12:19:50.462Z,20.60
2018-11-04T12:22:19.570Z,21.28
2018-11-04T12:24:48.431Z,20.07
2018-11-04T12:27:17.458Z,20.12
2018-11-04T12:29:46.553Z,19.81
2018-11-04T12:32:15.611Z,19.93
2018-11-04T12:34:44.866Z,18.93
2018-11-04T12:37:14.112Z,20.13
2018-11-04T12:39:43.143Z,20.05
2018-11-04T12:42:12.200Z,19.50
2018-11-04T12:44:41.309Z,19.70
2018-11-04T12:47:10.502Z,20.67
2018-11-04T12:49:39.297Z,24.19
2018-11-04T12:52:08.359Z,25.54
2018-11-04T12:54:37.278Z,27.03
2018-11-04T12:57:06.939Z,29.02
2018-11-04T12:59:36.046Z,30.12
2018-11-04T13:02:05.310Z,32.31
2018-11-04T13:04:34.230Z,32.85
2018-11-04T13:07:03.119Z,35.04
2018-11-04T13:09:31.912Z,35.59
2018-11-04T13:12:00.894Z,36.44
2018-11-04T13:14:30.154Z,37.73
2018-11-04T13:16:59.391Z,37.79
2018-11-04T13:19:28.485Z,38.49
2018-11-04T13:21:57.217Z,39.74
2018-11-04T13:24:26.035Z,39.87
2018-11-04T13:26:55.143Z,40.64
2018-11-04T13:29:24.193Z,40.85
2018-11-04T13:31:53.237Z,41.50
2018-11-04T13:34:22.283Z,42.15
2018-11-04T13:36:51.435Z,43.30
2018-11-04T13:39:20.523Z,43.76
2018-11-04T13:41:49.378Z,43.39
2018-11-04T13:44:18.306Z,43.94
2018-11-04T13:46:47.518Z,43.91
2018-11-04T13:49:16.670Z,44.94
2018-11-04T13:51:45.771Z,44.69
2018-11-04T13:54:14.954Z,44.85
2018-11-04T13:56:43.806Z,45.17
2018-11-04T13:59:12.634Z,46.15
2018-11-04T14:01:41.821Z,45.91
2018-11-04T14:04:11.019Z,45.85
2018-11-04T14:06:40.249Z,46.56
2018-11-04T14:09:09.862Z,46.73
2018-11-04T14:11:39.094Z,46.80
2018-11-04T14:14:08.090Z,47.63
2018-11-04T14:16:36.917Z,47.39
2018-11-04T14:19:06.207Z,47.84
2018-11-04T14:21:36.110Z,48.49
2018-11-04T14:24:05.140Z,48.77
2018-11-04T14:26:34.274Z,48.16
2018-11-04T14:29:03.211Z,48.58
2018-11-04T14:31:32.331Z,49.07
2018-11-04T14:34:01.572Z,49.25
2018-11-04T14:36:30.545Z,49.67
2018-11-04T14:38:59.563Z,49.44
2018-11-04T14:41:28.566Z,50.54
2018-11-04T14:43:57.906Z,50.42
2018-11-04T14:46:26.971Z,50.85
2018-11-04T14:48:56.198Z,51.01
2018-11-04T14:51:25.502Z,52.25
2018-11-04T14:53:54.556Z,52.07
2018-11-04T14:56:28.294Z,52.07
2018-11-04T14:58:57.804Z,52.78
2018-11-04T15:01:27.311Z,52.82
2018-11-04T15:03:56.216Z,53.68
2018-11-04T15:06:25.907Z,54.44
2018-11-04T15:08:55.011Z,54.58
2018-11-04T15:11:24.159Z,54.99
2018-11-04T15:13:53.355Z,55.20
2018-11-04T15:16:22.034Z,55.57
2018-11-04T15:18:51.289Z,56.12
2018-11-04T15:21:20.062Z,56.06
2018-11-04T15:23:49.304Z,56.63
2018-11-04T15:26:18.464Z,56.94
2018-11-04T15:28:48.395Z,57.65
2018-11-04T15:31:17.431Z,58.33
2018-11-04T15:33:46.270Z,58.58
2018-11-04T15:36:15.402Z,58.55
2018-11-04T15:38:44.407Z,58.22
2018-11-04T15:41:13.503Z,59.53
2018-11-04T15:43:42.440Z,59.80
2018-11-04T15:46:11.602Z,59.95
2018-11-04T15:48:40.556Z,60.03
2018-11-04T15:51:09.563Z,60.24
2018-11-04T15:53:38.766Z,61.01
2018-11-04T15:56:08.046Z,61.14
2018-11-04T15:58:37.288Z,61.11
2018-11-04T16:01:06.485Z,61.20
2018-11-04T16:03:35.638Z,61.60
2018-11-04T16:06:04.700Z,61.90
2018-11-04T16:08:33.577Z,61.52
2018-11-04T16:11:02.411Z,61.74
2018-11-04T16:13:31.431Z,60.88
2018-11-04T16:16:00.654Z,61.64
2018-11-04T16:18:29.551Z,61.11
2018-11-04T16:20:58.714Z,61.63
2018-11-04T16:23:27.810Z,61.71
2018-11-04T16:25:57.099Z,61.70
2018-11-04T16:28:26.291Z,62.29
2018-11-04T16:30:55.594Z,62.16
2018-11-04T16:33:24.802Z,62.92
2018-11-04T16:35:54.090Z,63.14
2018-11-04T16:38:23.212Z,63.78
2018-11-04T16:40:52.262Z,63.94
2018-11-04T16:43:21.584Z,64.08
2018-11-04T16:45:50.862Z,64.77
2018-11-04T16:48:20.015Z,65.07
2018-11-04T16:50:49.018Z,64.83
2018-11-04T16:53:17.998Z,65.07
2018-11-04T16:55:47.203Z,65.23
2018-11-04T16:58:16.341Z,64.40
2018-11-04T17:00:45.346Z,64.61
2018-11-04T17:03:15.051Z,64.84
2018-11-04T17:05:44.716Z,64.50
2018-11-04T17:08:13.758Z,65.09
2018-11-04T17:10:43.823Z,65.59
2018-11-04T17:13:13.079Z,65.61
2018-11-04T17:15:43.045Z,65.92
2018-11-04T17:18:12.727Z,65.38
2018-11-04T17:20:43.190Z,66.08
2018-11-04T17:23:12.224Z,66.40
2018-11-04T17:25:41.523Z,66.66
2018-11-04T17:28:10.710Z,67.33
2018-11-04T17:30:39.793Z,67.26
2018-11-04T17:33:08.592Z,68.11
2018-11-04T17:35:37.670Z,67.94
2018-11-04T17:38:06.874Z,68.34
2018-11-04T17:40:36.426Z,69.46
2018-11-04T17:43:06.040Z,68.64
2018-11-04T17:45:35.367Z,68.53
2018-11-04T17:48:04.469Z,68.44
2018-11-04T17:50:34.217Z,68.50
2018-11-04T17:53:03.374Z,68.11
2018-11-04T17:55:32.313Z,68.56
2018-11-04T17:58:01.814Z,68.58
2018-11-04T18:00:32.218Z,68.92
2018-11-04T18:03:03.224Z,68.42
2018-11-04T18:05:32.966Z,68.01
2018-11-04T18:08:02.121Z,66.38
2018-11-04T18:10:31.699Z,66.83
2018-11-04T18:13:00.868Z,65.30
2018-11-04T18:15:29.882Z,65.77
2018-11-04T18:17:58.826Z,65.60
2018-11-04T18:20:28.827Z,64.70
2018-11-04T18:22:57.842Z,63.52
2018-11-04T18:25:26.886Z,64.36
2018-11-04T18:27:55.950Z,63.29
2018-11-04T18:30:25.072Z,63.49
2018-11-04T18:32:53.990Z,63.30
2018-11-04T18:35:22.961Z,61.57
2018-11-04T18:37:52.091Z,62.53
2018-11-04T18:40:21.221Z,62.25
2018-11-04T18:42:50.493Z,61.79
2018-11-04T18:45:19.831Z,61.30
2018-11-04T18:47:49.164Z,61.49
2018-11-04T18:50:18.280Z,62.09
2018-11-04T18:52:47.501Z,61.43
2018-11-04T18:55:16.989Z,61.29
2018-11-04T18:57:46.209Z,61.85
2018-11-04T19:00:17.419Z,62.86
2018-11-04T19:02:47.194Z,63.57
2018-11-04T19:05:16.525Z,64.11
2018-11-04T19:07:45.690Z,65.30
2018-11-04T19:10:16.805Z,65.98
2018-11-04T19:12:45.668Z,65.46
2018-11-04T19:15:14.841Z,66.04
2018-11-04T19:17:43.671Z,66.49
2018-11-04T19:20:14.093Z,66.90
2018-11-04T19:22:43.238Z,66.84
2018-11-04T19:25:13.561Z,67.10
2018-11-04T19:27:42.674Z,68.22
2018-11-04T19:30:17.534Z,68.99
2018-11-04T19:32:47.006Z,68.64
2018-11-04T19:35:17.482Z,69.35
2018-11-04T19:37:46.613Z,69.71
2018-11-04T19:40:16.409Z,70.55
2018-11-04T19:42:45.721Z,70.85
2018-11-04T19:45:15.652Z,70.75
2018-11-04T19:47:44.803Z,70.11
2018-11-04T19:50:14.324Z,69.66
2018-11-04T19:52:43.829Z,69.93
2018-11-04T19:55:13.402Z,70.59
2018-11-04T19:57:42.262Z,70.69
2018-11-04T20:00:12.543Z,71.00
2018-11-04T20:02:41.791Z,71.47
2018-11-04T20:05:11.865Z,71.75
2018-11-04T20:07:40.629Z,71.87
2018-11-04T20:10:11.190Z,70.44
2018-11-04T20:12:45.266Z,70.52
2018-11-04T20:15:14.443Z,70.91
2018-11-04T20:17:43.956Z,71.26
2018-11-04T20:20:17.796Z,71.89
2018-11-04T20:22:46.864Z,71.86
2018-11-04T20:25:20.843Z,72.50
2018-11-04T20:27:49.707Z,71.23
2018-11-04T20:30:18.835Z,72.13
2018-11-04T20:32:52.980Z,72.20
2018-11-04T20:35:21.807Z,72.23
2018-11-04T20:37:50.686Z,71.79
2018-11-04T20:40:24.888Z,70.90
2018-11-04T20:42:53.773Z,70.38
2018-11-04T20:45:22.820Z,70.76
2018-11-04T20:47:56.958Z,70.81
2018-11-04T20:50:31.054Z,70.74
2018-11-04T20:53:00.355Z,70.24
2018-11-04T20:55:34.534Z,70.87
2018-11-04T20:58:03.870Z,71.59
2018-11-04T21:00:33.114Z,71.50
2018-11-04T21:03:02.267Z,71.67
2018-11-04T21:05:31.344Z,71.97
2018-11-04T21:08:00.363Z,72.01
2018-11-04T21:10:29.530Z,71.83
2018-11-04T21:12:58.525Z,72.61
2018-11-04T21:15:27.634Z,71.70
2018-11-04T21:17:56.455Z,71.81
2018-11-04T21:20:25.787Z,72.00
2018-11-04T21:22:54.913Z,72.27
2018-11-04T21:25:24.361Z,72.66
2018-11-04T21:27:53.416Z,72.04
2018-11-04T21:30:22.277Z,71.98
2018-11-04T21:32:51.511Z,72.02
2018-11-04T21:35:20.650Z,72.27
2018-11-04T21:37:49.836Z,72.11
2018-11-04T21:40:18.956Z,72.23
2018-11-04T21:42:48.041Z,72.02
2018-11-04T21:45:17.049Z,71.09
2018-11-04T21:47:45.850Z,71.45
2018-11-04T21:50:15.054Z,71.15
2018-11-04T21:52:44.277Z,71.24
2018-11-04T21:55:14.043Z,71.88
2018-11-04T21:57:44.122Z,72.21
2018-11-04T22:00:14.658Z,71.96
2018-11-04T22:02:44.166Z,72.46
2018-11-04T22:05:13.435Z,73.03
2018-11-04T22:07:43.522Z,73.20
2018-11-04T22:10:14.149Z,72.57
2018-11-04T22:12:43.499Z,73.13
2018-11-04T22:15:12.499Z,72.80
2018-11-04T22:17:42.307Z,74.36
2018-11-04T22:20:12.830Z,73.82
2018-11-04T22:22:42.080Z,72.38
2018-11-04T22:25:11.692Z,72.47
2018-11-04T22:27:40.806Z,73.63
2018-11-04T22:30:11.290Z,73.04
2018-11-04T22:32:40.521Z,73.19
2018-11-04T22:35:11.103Z,72.73
2018-11-04T22:37:40.378Z,72.89
2018-11-04T22:40:11.080Z,73.14
2018-11-04T22:42:41.094Z,72.78
2018-11-04T22:45:11.498Z,72.58
2018-11-04T22:47:41.570Z,73.22
2018-11-04T22:50:13.138Z,74.20
2018-11-04T22:52:42.502Z,74.35
2018-11-04T22:55:12.403Z,74.29
2018-11-04T22:57:41.373Z,73.46
2018-11-04T23:00:16.554Z,73.79
2018-11-04T23:02:46.490Z,74.22
2018-11-04T23:05:20.622Z,73.93
2018-11-04T23:07:49.707Z,74.86
2018-11-04T23:10:18.865Z,74.62
2018-11-04T23:12:47.688Z,74.33
2018-11-04T23:15:16.827Z,73.98
2018-11-04T23:17:45.800Z,74.22
2018-11-04T23:20:14.961Z,74.93
2018-11-04T23:22:44.114Z,74.19
2018-11-04T23:25:14.169Z,73.70
2018-11-04T23:27:43.629Z,74.53
2018-11-04T23:30:15.067Z,74.83
2018-11-04T23:32:44.735Z,75.19
2018-11-04T23:35:14.026Z,75.67
2018-11-04T23:37:44.253Z,75.62
2018-11-04T23:40:13.373Z,74.94
2018-11-04T23:42:42.600Z,75.30
2018-11-04T23:45:13.321Z,75.42
2018-11-04T23:47:42.426Z,75.70
2018-11-04T23:50:13.965Z,75.91
2018-11-04T23:52:43.535Z,76.26
2018-11-04T23:55:13.590Z,75.47
2018-11-04T23:57:42.843Z,76.37
